sensor_id;sensor_type;location;lat;lon;timestamp;temperature;humidity
21563;DHT22;10942;47.894;11.424;2023-11-19T03:15:31;6.30;99.90
21563;DHT22;10942;47.894;11.424;2023-11-19T03:17:59;6.20;99.90
21563;DHT22;10942;47.894;11.424;2023-11-19T03:20:25;6.20;99.90
21563;DHT22;10942;47.894;11.424;2023-11-19T03:22:53;6.20;99.90
21563;DHT22;10942;47.894;11.424;2023-11-19T03:25:18;6.20;99.90
21563;DHT22;10942;47.894;11.424;2023-11-19T03:27:44;6.20;99.90
21563;DHT22;10942;47.894;11.424;2023-11-19T03:30:10;6.20;99.90
21563;DHT22;10942;47.894;11.424;2023-11-19T03:32:36;6.20;99.90
21563;DHT22;10942;47.894;11.424;2023-11-19T03:35:03;6.20;99.90
21563;DHT22;10942;47.894;11.424;2023-11-19T03:37:30;6.30;99.90
21563;DHT22;10942;47.894;11.424;2023-11-19T03:39:57;6.30;99.90
21563;DHT22;10942;47.894;11.424;2023-11-19T03:42:26;6.30;99.90
21563;DHT22;10942;47.894;11.424;2023-11-19T03:44:53;6.40;99.90
21563;DHT22;10942;47.894;11.424;2023-11-19T03:47:19;6.50;99.90
21563;DHT22;10942;47.894;11.424;2023-11-19T03:49:49;6.50;99.90
21563;DHT22;10942;47.894;11.424;2023-11-19T03:52:15;6.60;99.90
21563;DHT22;10942;47.894;11.424;2023-11-19T03:54:40;6.60;99.90
21563;DHT22;10942;47.894;11.424;2023-11-19T03:57:06;6.70;99.90
21563;DHT22;10942;47.894;11.424;2023-11-19T03:59:32;6.80;99.90
21563;DHT22;10942;47.894;11.424;2023-11-19T04:01:59;6.90;99.90
21563;DHT22;10942;47.894;11.424;2023-11-19T04:04:26;6.90;99.90
21563;DHT22;10942;47.894;11.424;2023-11-19T04:06:53;7.00;99.90
21563;DHT22;10942;47.894;11.424;2023-11-19T04:09:19;7.10;99.90
21563;DHT22;10942;47.894;11.424;2023-11-19T04:11:45;7.20;99.90
21563;DHT22;10942;47.894;11.424;2023-11-19T04:14:13;7.30;99.90
21563;DHT22;10942;47.894;11.424;2023-11-19T04:16:39;7.40;99.90
21563;DHT22;10942;47.894;11.424;2023-11-19T04:19:05;7.50;99.90
21563;DHT22;10942;47.894;11.424;2023-11-19T04:21:32;7.50;99.90
21563;DHT22;10942;47.894;11.424;2023-11-19T04:23:58;7.60;99.90
21563;DHT22;10942;47.894;11.424;2023-11-19T04:26:23;7.60;99.90
21563;DHT22;10942;47.894;11.424;2023-11-19T04:28:49;7.70;99.90
21563;DHT22;10942;47.894;11.424;2023-11-19T04:31:15;7.80;99.90
21563;DHT22;10942;47.894;11.424;2023-11-19T04:33:44;7.90;99.90
21563;DHT22;10942;47.894;11.424;2023-11-19T04:36:11;7.90;99.90
21563;DHT22;10942;47.894;11.424;2023-11-19T04:38:37;8.00;99.90
21563;DHT22;10942;47.894;11.424;2023-11-19T04:45:57;8.40;99.90
21563;DHT22;10942;47.894;11.424;2023-11-19T04:50:49;8.60;99.90
21563;DHT22;10942;47.894;11.424;2023-11-19T04:55:44;8.70;99.90
21563;DHT22;10942;47.894;11.424;2023-11-19T04:58:10;8.80;99.90
21563;DHT22;10942;47.894;11.424;2023-11-19T05:00:35;8.80;99.90
21563;DHT22;10942;47.894;11.424;2023-11-19T05:03:01;8.90;99.90
21563;DHT22;10942;47.894;11.424;2023-11-19T05:05:27;9.00;99.90
21563;DHT22;10942;47.894;11.424;2023-11-19T05:07:53;9.10;99.90
21563;DHT22;10942;47.894;11.424;2023-11-19T05:10:20;9.20;99.90
21563;DHT22;10942;47.894;11.424;2023-11-19T05:12:46;9.20;99.90
21563;DHT22;10942;47.894;11.424;2023-11-19T05:15:12;9.20;99.90
21563;DHT22;10942;47.894;11.424;2023-11-19T05:17:38;9.30;99.90
21563;DHT22;10942;47.894;11.424;2023-11-19T05:22:41;9.40;99.90
21563;DHT22;10942;47.894;11.424;2023-11-19T05:25:08;9.40;99.90
21563;DHT22;10942;47.894;11.424;2023-11-19T05:27:37;9.40;99.90
21563;DHT22;10942;47.894;11.424;2023-11-19T05:30:06;9.40;99.90
21563;DHT22;10942;47.894;11.424;2023-11-19T05:32:33;9.50;99.90
21563;DHT22;10942;47.894;11.424;2023-11-19T05:34:59;9.60;99.90
21563;DHT22;10942;47.894;11.424;2023-11-19T05:37:24;9.50;99.90
21563;DHT22;10942;47.894;11.424;2023-11-19T05:39:50;9.60;99.90
21563;DHT22;10942;47.894;11.424;2023-11-19T05:42:16;9.60;99.90
21563;DHT22;10942;47.894;11.424;2023-11-19T05:44:42;9.60;99.90
21563;DHT22;10942;47.894;11.424;2023-11-19T05:47:08;9.60;99.90
21563;DHT22;10942;47.894;11.424;2023-11-19T05:49:34;9.60;99.90
21563;DHT22;10942;47.894;11.424;2023-11-19T05:51:59;9.60;99.90
21563;DHT22;10942;47.894;11.424;2023-11-19T05:54:27;9.60;99.90
21563;DHT22;10942;47.894;11.424;2023-11-19T05:56:52;9.60;99.90
21563;DHT22;10942;47.894;11.424;2023-11-19T05:59:20;9.70;99.90
21563;DHT22;10942;47.894;11.424;2023-11-19T06:01:45;9.60;99.90
21563;DHT22;10942;47.894;11.424;2023-11-19T06:04:12;9.70;99.90
21563;DHT22;10942;47.894;11.424;2023-11-19T06:06:37;9.70;99.90
21563;DHT22;10942;47.894;11.424;2023-11-19T06:09:04;9.70;99.90
21563;DHT22;10942;47.894;11.424;2023-11-19T06:11:32;9.70;99.90
21563;DHT22;10942;47.894;11.424;2023-11-19T06:13:58;9.70;99.90
21563;DHT22;10942;47.894;11.424;2023-11-19T06:16:24;9.70;99.90
21563;DHT22;10942;47.894;11.424;2023-11-19T06:18:50;9.70;99.90
21563;DHT22;10942;47.894;11.424;2023-11-19T06:21:15;9.70;99.90
21563;DHT22;10942;47.894;11.424;2023-11-19T06:23:41;9.70;99.90
21563;DHT22;10942;47.894;11.424;2023-11-19T06:26:07;9.70;99.90
21563;DHT22;10942;47.894;11.424;2023-11-19T06:28:34;9.70;99.90
21563;DHT22;10942;47.894;11.424;2023-11-19T06:31:00;9.70;99.90
21563;DHT22;10942;47.894;11.424;2023-11-19T06:33:26;9.70;99.90
21563;DHT22;10942;47.894;11.424;2023-11-19T06:35:52;9.70;99.90
21563;DHT22;10942;47.894;11.424;2023-11-19T06:38:20;9.70;99.90
21563;DHT22;10942;47.894;11.424;2023-11-19T06:40:45;9.70;99.90
21563;DHT22;10942;47.894;11.424;2023-11-19T06:43:11;9.70;99.90
21563;DHT22;10942;47.894;11.424;2023-11-19T06:45:37;9.60;99.90
21563;DHT22;10942;47.894;11.424;2023-11-19T06:48:03;9.70;99.90
21563;DHT22;10942;47.894;11.424;2023-11-19T06:50:30;9.70;99.90
21563;DHT22;10942;47.894;11.424;2023-11-19T06:52:56;9.70;99.90
21563;DHT22;10942;47.894;11.424;2023-11-19T06:57:47;9.70;99.90
21563;DHT22;10942;47.894;11.424;2023-11-19T07:00:13;9.70;99.90
21563;DHT22;10942;47.894;11.424;2023-11-19T07:02:39;9.70;99.90
21563;DHT22;10942;47.894;11.424;2023-11-19T07:07:32;9.80;99.90
21563;DHT22;10942;47.894;11.424;2023-11-19T07:10:01;9.80;99.90
21563;DHT22;10942;47.894;11.424;2023-11-19T07:12:28;9.80;99.90
21563;DHT22;10942;47.894;11.424;2023-11-19T07:14:53;9.80;99.90
21563;DHT22;10942;47.894;11.424;2023-11-19T07:17:20;9.80;99.90
21563;DHT22;10942;47.894;11.424;2023-11-19T07:19:47;9.90;99.90
21563;DHT22;10942;47.894;11.424;2023-11-19T07:22:14;9.80;99.90
21563;DHT22;10942;47.894;11.424;2023-11-19T07:24:40;9.90;99.90
21563;DHT22;10942;47.894;11.424;2023-11-19T07:27:07;9.90;99.90
21563;DHT22;10942;47.894;11.424;2023-11-19T07:29:37;9.90;99.90
21563;DHT22;10942;47.894;11.424;2023-11-19T07:32:03;9.90;99.90
21563;DHT22;10942;47.894;11.424;2023-11-19T07:34:28;9.90;99.90
21563;DHT22;10942;47.894;11.424;2023-11-19T07:36:54;10.00;99.90
21563;DHT22;10942;47.894;11.424;2023-11-19T07:39:22;10.00;99.90
21563;DHT22;10942;47.894;11.424;2023-11-19T07:41:49;10.00;99.90
21563;DHT22;10942;47.894;11.424;2023-11-19T07:44:15;10.00;99.90
21563;DHT22;10942;47.894;11.424;2023-11-19T07:46:40;10.10;99.90
21563;DHT22;10942;47.894;11.424;2023-11-19T07:49:07;10.10;99.90
21563;DHT22;10942;47.894;11.424;2023-11-19T07:51:35;10.10;99.90
21563;DHT22;10942;47.894;11.424;2023-11-19T07:54:01;10.10;99.90
21563;DHT22;10942;47.894;11.424;2023-11-19T07:56:27;10.10;99.90
21563;DHT22;10942;47.894;11.424;2023-11-19T07:58:53;10.20;99.90
21563;DHT22;10942;47.894;11.424;2023-11-19T08:01:18;10.20;99.90
21563;DHT22;10942;47.894;11.424;2023-11-19T08:06:10;10.30;99.90
21563;DHT22;10942;47.894;11.424;2023-11-19T08:08:36;10.40;99.90
21563;DHT22;10942;47.894;11.424;2023-11-19T08:11:04;10.40;99.90
21563;DHT22;10942;47.894;11.424;2023-11-19T08:13:30;10.40;99.90
21563;DHT22;10942;47.894;11.424;2023-11-19T08:15:57;10.50;99.90
21563;DHT22;10942;47.894;11.424;2023-11-19T08:18:24;10.50;99.90
21563;DHT22;10942;47.894;11.424;2023-11-19T08:20:50;10.60;99.90
21563;DHT22;10942;47.894;11.424;2023-11-19T08:23:19;10.60;99.90
21563;DHT22;10942;47.894;11.424;2023-11-19T08:25:45;10.50;99.90
21563;DHT22;10942;47.894;11.424;2023-11-19T08:28:11;10.60;99.90
21563;DHT22;10942;47.894;11.424;2023-11-19T08:30:36;10.60;99.90
21563;DHT22;10942;47.894;11.424;2023-11-19T08:33:02;10.60;99.90
21563;DHT22;10942;47.894;11.424;2023-11-19T08:35:29;10.70;99.90
21563;DHT22;10942;47.894;11.424;2023-11-19T08:59:52;10.90;99.90
21563;DHT22;10942;47.894;11.424;2023-11-19T09:04:44;11.00;99.90
21563;DHT22;10942;47.894;11.424;2023-11-19T09:09:36;11.20;99.90
21563;DHT22;10942;47.894;11.424;2023-11-19T09:21:48;11.40;99.90
21563;DHT22;10942;47.894;11.424;2023-11-19T09:24:15;11.50;99.90
21563;DHT22;10942;47.894;11.424;2023-11-19T09:26:41;11.50;99.90
21563;DHT22;10942;47.894;11.424;2023-11-19T09:29:07;11.40;99.90
21563;DHT22;10942;47.894;11.424;2023-11-19T09:31:33;11.50;99.90
21563;DHT22;10942;47.894;11.424;2023-11-19T09:34:00;11.40;99.90
21563;DHT22;10942;47.894;11.424;2023-11-19T09:36:25;11.40;99.90
21563;DHT22;10942;47.894;11.424;2023-11-19T09:38:51;11.40;99.90
21563;DHT22;10942;47.894;11.424;2023-11-19T09:41:17;11.40;99.90
21563;DHT22;10942;47.894;11.424;2023-11-19T09:43:45;11.30;99.90
21563;DHT22;10942;47.894;11.424;2023-11-19T09:46:13;11.30;99.90
21563;DHT22;10942;47.894;11.424;2023-11-19T09:48:41;11.30;99.90
21563;DHT22;10942;47.894;11.424;2023-11-19T09:51:08;11.40;99.90
21563;DHT22;10942;47.894;11.424;2023-11-19T09:53:35;11.50;99.90
21563;DHT22;10942;47.894;11.424;2023-11-19T09:56:05;11.50;99.90
21563;DHT22;10942;47.894;11.424;2023-11-19T09:58:32;11.50;99.90
21563;DHT22;10942;47.894;11.424;2023-11-19T10:00:58;11.50;99.90
21563;DHT22;10942;47.894;11.424;2023-11-19T10:03:36;11.50;99.90
21563;DHT22;10942;47.894;11.424;2023-11-19T10:06:07;11.50;99.90
21563;DHT22;10942;47.894;11.424;2023-11-19T10:08:33;11.60;99.90
21563;DHT22;10942;47.894;11.424;2023-11-19T10:10:59;11.70;99.90
21563;DHT22;10942;47.894;11.424;2023-11-19T10:13:31;11.70;99.90
21563;DHT22;10942;47.894;11.424;2023-11-19T10:15:56;11.70;99.90
21563;DHT22;10942;47.894;11.424;2023-11-19T10:18:26;11.70;99.90
21563;DHT22;10942;47.894;11.424;2023-11-19T10:20:52;11.70;99.90
21563;DHT22;10942;47.894;11.424;2023-11-19T10:23:18;11.70;99.90
21563;DHT22;10942;47.894;11.424;2023-11-19T10:25:45;11.70;99.90
21563;DHT22;10942;47.894;11.424;2023-11-19T10:28:11;11.70;99.90
21563;DHT22;10942;47.894;11.424;2023-11-19T10:30:36;11.70;99.90
21563;DHT22;10942;47.894;11.424;2023-11-19T10:33:14;11.70;99.90
21563;DHT22;10942;47.894;11.424;2023-11-19T10:35:55;11.70;99.90
21563;DHT22;10942;47.894;11.424;2023-11-19T10:38:23;11.70;99.90
21563;DHT22;10942;47.894;11.424;2023-11-19T10:40:50;11.80;99.90
21563;DHT22;10942;47.894;11.424;2023-11-19T10:43:20;11.80;99.90
21563;DHT22;10942;47.894;11.424;2023-11-19T10:45:48;11.70;99.90
21563;DHT22;10942;47.894;11.424;2023-11-19T10:48:15;11.80;99.90
21563;DHT22;10942;47.894;11.424;2023-11-19T10:50:43;11.90;99.90
21563;DHT22;10942;47.894;11.424;2023-11-19T10:53:10;11.90;99.90
21563;DHT22;10942;47.894;11.424;2023-11-19T10:55:38;12.00;99.90
21563;DHT22;10942;47.894;11.424;2023-11-19T10:58:06;12.00;99.90
21563;DHT22;10942;47.894;11.424;2023-11-19T11:00:44;12.00;99.90
21563;DHT22;10942;47.894;11.424;2023-11-19T11:03:21;12.10;99.90
21563;DHT22;10942;47.894;11.424;2023-11-19T11:05:51;12.10;99.90
21563;DHT22;10942;47.894;11.424;2023-11-19T11:08:18;12.20;99.90
21563;DHT22;10942;47.894;11.424;2023-11-19T11:10:47;12.30;99.90
21563;DHT22;10942;47.894;11.424;2023-11-19T11:13:14;12.40;99.90
21563;DHT22;10942;47.894;11.424;2023-11-19T11:15:39;12.40;99.90
21563;DHT22;10942;47.894;11.424;2023-11-19T11:18:09;12.50;99.90
21563;DHT22;10942;47.894;11.424;2023-11-19T11:20:35;12.50;99.90
21563;DHT22;10942;47.894;11.424;2023-11-19T11:31:36;12.30;99.90
21563;DHT22;10942;47.894;11.424;2023-11-19T11:39:34;12.30;99.90
21563;DHT22;10942;47.894;11.424;2023-11-19T11:45:06;12.50;99.90
21563;DHT22;10942;47.894;11.424;2023-11-19T11:50:17;12.60;99.90
21563;DHT22;10942;47.894;11.424;2023-11-19T11:58:18;12.80;99.90
21563;DHT22;10942;47.894;11.424;2023-11-19T12:03:12;13.30;99.90
21563;DHT22;10942;47.894;11.424;2023-11-19T12:05:40;13.30;99.90
21563;DHT22;10942;47.894;11.424;2023-11-19T12:08:07;13.40;99.90
21563;DHT22;10942;47.894;11.424;2023-11-19T12:10:48;13.50;99.90
21563;DHT22;10942;47.894;11.424;2023-11-19T12:13:15;13.60;99.90
21563;DHT22;10942;47.894;11.424;2023-11-19T12:18:29;13.70;99.90
21563;DHT22;10942;47.894;11.424;2023-11-19T12:20:55;13.70;99.90
21563;DHT22;10942;47.894;11.424;2023-11-19T12:23:24;13.70;99.90
21563;DHT22;10942;47.894;11.424;2023-11-19T12:25:50;13.70;99.90
21563;DHT22;10942;47.894;11.424;2023-11-19T12:28:16;13.50;99.90
21563;DHT22;10942;47.894;11.424;2023-11-19T12:30:43;13.50;99.90
21563;DHT22;10942;47.894;11.424;2023-11-19T12:33:13;13.40;99.90
21563;DHT22;10942;47.894;11.424;2023-11-19T12:35:43;13.30;99.90
21563;DHT22;10942;47.894;11.424;2023-11-19T12:38:25;13.30;99.90
21563;DHT22;10942;47.894;11.424;2023-11-19T12:41:09;13.20;99.90
21563;DHT22;10942;47.894;11.424;2023-11-19T12:43:39;13.20;99.90
21563;DHT22;10942;47.894;11.424;2023-11-19T12:46:18;13.10;99.90
21563;DHT22;10942;47.894;11.424;2023-11-19T12:48:46;13.10;99.90
21563;DHT22;10942;47.894;11.424;2023-11-19T12:51:12;13.00;99.90
21563;DHT22;10942;47.894;11.424;2023-11-19T12:53:52;13.00;99.90
21563;DHT22;10942;47.894;11.424;2023-11-19T12:56:22;12.90;99.90
21563;DHT22;10942;47.894;11.424;2023-11-19T12:58:48;12.90;99.90
21563;DHT22;10942;47.894;11.424;2023-11-19T13:01:19;12.90;99.90
21563;DHT22;10942;47.894;11.424;2023-11-19T13:03:46;12.90;99.90
21563;DHT22;10942;47.894;11.424;2023-11-19T13:06:13;12.90;99.90
21563;DHT22;10942;47.894;11.424;2023-11-19T13:08:45;12.90;99.90
21563;DHT22;10942;47.894;11.424;2023-11-19T13:11:12;12.90;99.90
21563;DHT22;10942;47.894;11.424;2023-11-19T13:13:58;12.90;99.90
21563;DHT22;10942;47.894;11.424;2023-11-19T13:16:25;12.80;99.90
21563;DHT22;10942;47.894;11.424;2023-11-19T14:41:57;12.30;99.90
21563;DHT22;10942;47.894;11.424;2023-11-19T14:44:30;12.30;99.90
21563;DHT22;10942;47.894;11.424;2023-11-19T14:46:55;12.20;99.90
21563;DHT22;10942;47.894;11.424;2023-11-19T14:49:21;12.20;99.90
21563;DHT22;10942;47.894;11.424;2023-11-19T14:51:47;12.10;99.90
21563;DHT22;10942;47.894;11.424;2023-11-19T14:54:13;12.10;99.90
21563;DHT22;10942;47.894;11.424;2023-11-19T14:56:41;12.10;99.90
21563;DHT22;10942;47.894;11.424;2023-11-19T14:59:07;12.10;99.90
21563;DHT22;10942;47.894;11.424;2023-11-19T15:01:33;12.00;99.90
21563;DHT22;10942;47.894;11.424;2023-11-19T15:03:58;12.00;99.90
21563;DHT22;10942;47.894;11.424;2023-11-19T15:06:25;12.00;99.90
21563;DHT22;10942;47.894;11.424;2023-11-19T15:08:52;12.00;99.90
21563;DHT22;10942;47.894;11.424;2023-11-19T15:11:18;12.00;99.90
21563;DHT22;10942;47.894;11.424;2023-11-19T15:13:44;11.90;99.90
21563;DHT22;10942;47.894;11.424;2023-11-19T15:16:10;11.90;99.90
21563;DHT22;10942;47.894;11.424;2023-11-19T15:18:40;11.80;99.90
21563;DHT22;10942;47.894;11.424;2023-11-19T15:21:06;11.80;99.90
21563;DHT22;10942;47.894;11.424;2023-11-19T15:23:33;11.70;99.90
21563;DHT22;10942;47.894;11.424;2023-11-19T15:25:59;11.70;99.90
21563;DHT22;10942;47.894;11.424;2023-11-19T15:38:09;11.70;99.90
21563;DHT22;10942;47.894;11.424;2023-11-19T15:40:35;11.60;99.90
21563;DHT22;10942;47.894;11.424;2023-11-19T16:41:41;11.30;99.90
21563;DHT22;10942;47.894;11.424;2023-11-19T16:44:07;11.30;99.90
21563;DHT22;10942;47.894;11.424;2023-11-19T16:46:33;11.20;99.90
21563;DHT22;10942;47.894;11.424;2023-11-19T16:48:58;11.20;99.90
21563;DHT22;10942;47.894;11.424;2023-11-19T16:51:24;11.10;99.90
21563;DHT22;10942;47.894;11.424;2023-11-19T16:53:50;11.10;99.90
21563;DHT22;10942;47.894;11.424;2023-11-19T16:56:17;11.10;99.90
21563;DHT22;10942;47.894;11.424;2023-11-19T16:58:45;11.00;99.90
21563;DHT22;10942;47.894;11.424;2023-11-19T17:01:12;11.10;99.90
21563;DHT22;10942;47.894;11.424;2023-11-19T17:03:40;11.10;99.90
21563;DHT22;10942;47.894;11.424;2023-11-19T17:06:07;11.10;99.90
21563;DHT22;10942;47.894;11.424;2023-11-19T17:08:33;11.00;99.90
21563;DHT22;10942;47.894;11.424;2023-11-19T17:11:04;11.00;99.90
21563;DHT22;10942;47.894;11.424;2023-11-19T17:13:33;11.00;99.90
21563;DHT22;10942;47.894;11.424;2023-11-19T17:15:59;10.90;99.90
21563;DHT22;10942;47.894;11.424;2023-11-19T17:18:25;10.90;99.90
21563;DHT22;10942;47.894;11.424;2023-11-19T17:20:51;10.90;99.90
21563;DHT22;10942;47.894;11.424;2023-11-19T17:23:18;10.90;99.90
21563;DHT22;10942;47.894;11.424;2023-11-19T17:25:44;10.90;99.90
21563;DHT22;10942;47.894;11.424;2023-11-19T17:28:10;10.80;99.90
21563;DHT22;10942;47.894;11.424;2023-11-19T17:30:37;10.90;99.90
21563;DHT22;10942;47.894;11.424;2023-11-19T17:33:04;10.80;99.90
21563;DHT22;10942;47.894;11.424;2023-11-19T17:35:35;10.80;99.90
21563;DHT22;10942;47.894;11.424;2023-11-19T17:40:27;10.70;99.90
21563;DHT22;10942;47.894;11.424;2023-11-19T17:42:53;10.70;99.90
21563;DHT22;10942;47.894;11.424;2023-11-19T17:45:22;10.70;99.90
21563;DHT22;10942;47.894;11.424;2023-11-19T17:47:48;10.60;99.90
21563;DHT22;10942;47.894;11.424;2023-11-19T18:22:29;10.30;99.90
21563;DHT22;10942;47.894;11.424;2023-11-19T18:24:56;10.20;99.90
21563;DHT22;10942;47.894;11.424;2023-11-19T18:27:22;10.20;99.90
21563;DHT22;10942;47.894;11.424;2023-11-19T18:29:47;10.10;99.90
21563;DHT22;10942;47.894;11.424;2023-11-19T18:32:14;10.10;99.90
21563;DHT22;10942;47.894;11.424;2023-11-19T18:34:40;10.10;99.90
21563;DHT22;10942;47.894;11.424;2023-11-19T18:37:06;10.10;99.90
21563;DHT22;10942;47.894;11.424;2023-11-19T18:39:32;10.10;99.90
21563;DHT22;10942;47.894;11.424;2023-11-19T18:41:58;10.10;99.90
21563;DHT22;10942;47.894;11.424;2023-11-19T18:44:23;10.10;99.90
21563;DHT22;10942;47.894;11.424;2023-11-19T18:46:49;10.10;99.90
21563;DHT22;10942;47.894;11.424;2023-11-19T18:49:15;10.10;99.90
21563;DHT22;10942;47.894;11.424;2023-11-19T18:51:40;10.10;99.90
21563;DHT22;10942;47.894;11.424;2023-11-19T18:54:06;10.10;99.90
21563;DHT22;10942;47.894;11.424;2023-11-19T18:56:32;10.00;99.90
21563;DHT22;10942;47.894;11.424;2023-11-19T18:58:57;10.00;99.90
21563;DHT22;10942;47.894;11.424;2023-11-19T19:01:23;9.90;99.90
21563;DHT22;10942;47.894;11.424;2023-11-19T19:03:51;9.90;99.90
21563;DHT22;10942;47.894;11.424;2023-11-19T19:06:17;9.90;99.90
21563;DHT22;10942;47.894;11.424;2023-11-19T19:08:42;9.80;99.90
21563;DHT22;10942;47.894;11.424;2023-11-19T19:11:09;9.90;99.90
21563;DHT22;10942;47.894;11.424;2023-11-19T19:13:35;9.90;99.90
21563;DHT22;10942;47.894;11.424;2023-11-19T19:16:06;9.90;99.90
21563;DHT22;10942;47.894;11.424;2023-11-19T20:24:37;11.30;99.90
21563;DHT22;10942;47.894;11.424;2023-11-19T20:27:03;10.50;99.90
21563;DHT22;10942;47.894;11.424;2023-11-19T20:29:29;10.50;99.90
21563;DHT22;10942;47.894;11.424;2023-11-19T20:31:55;10.50;99.90
21563;DHT22;10942;47.894;11.424;2023-11-19T20:34:21;10.50;99.90
21563;DHT22;10942;47.894;11.424;2023-11-19T20:36:46;10.50;99.90
21563;DHT22;10942;47.894;11.424;2023-11-19T20:39:12;10.50;99.90
21563;DHT22;10942;47.894;11.424;2023-11-19T20:41:40;10.50;99.90
21563;DHT22;10942;47.894;11.424;2023-11-19T20:44:07;10.60;99.90
21563;DHT22;10942;47.894;11.424;2023-11-19T20:46:33;10.50;99.90
21563;DHT22;10942;47.894;11.424;2023-11-19T20:48:59;10.60;99.90
21563;DHT22;10942;47.894;11.424;2023-11-19T20:51:25;10.60;99.90
21563;DHT22;10942;47.894;11.424;2023-11-19T20:53:51;10.60;99.90
21563;DHT22;10942;47.894;11.424;2023-11-19T20:56:17;10.50;99.90
21563;DHT22;10942;47.894;11.424;2023-11-19T20:58:43;10.50;99.90
21563;DHT22;10942;47.894;11.424;2023-11-19T21:01:08;10.50;99.90
21563;DHT22;10942;47.894;11.424;2023-11-19T21:03:35;10.40;99.90
21563;DHT22;10942;47.894;11.424;2023-11-19T21:06:03;10.50;99.90
21563;DHT22;10942;47.894;11.424;2023-11-19T21:08:29;10.50;99.90
21563;DHT22;10942;47.894;11.424;2023-11-19T21:10:55;10.40;99.90
21563;DHT22;10942;47.894;11.424;2023-11-19T21:13:21;10.30;99.90
21563;DHT22;10942;47.894;11.424;2023-11-19T21:15:47;10.40;99.90
21563;DHT22;10942;47.894;11.424;2023-11-19T21:18:14;10.30;99.90
21563;DHT22;10942;47.894;11.424;2023-11-19T21:20:40;10.30;99.90
21563;DHT22;10942;47.894;11.424;2023-11-19T21:23:05;10.30;99.90
21563;DHT22;10942;47.894;11.424;2023-11-19T21:25:31;10.30;99.90
21563;DHT22;10942;47.894;11.424;2023-11-19T21:27:58;10.30;99.90
21563;DHT22;10942;47.894;11.424;2023-11-19T21:30:24;10.30;99.90
21563;DHT22;10942;47.894;11.424;2023-11-19T21:32:50;10.20;99.90
